createdAt,value
2022-09-01T00:03:03.147Z,9.92
2022-09-01T00:08:05.638Z,9.91
2022-09-01T00:13:08.438Z,9.90
2022-09-01T00:18:10.312Z,9.87
2022-09-01T00:23:12.398Z,9.85
2022-09-01T00:28:14.283Z,9.84
2022-09-01T00:33:16.253Z,9.83
2022-09-01T00:38:18.343Z,9.82
2022-09-01T00:43:36.287Z,9.84
2022-09-01T00:48:38.984Z,9.90
2022-09-01T00:53:43.533Z,9.98
2022-09-01T00:58:46.016Z,10.02
2022-09-01T01:03:47.994Z,9.98
2022-09-01T01:08:57.552Z,9.93
2022-09-01T01:14:11.726Z,9.96
2022-09-01T01:19:40.318Z,10.06
2022-09-01T01:24:43.425Z,10.20
2022-09-01T01:29:47.351Z,10.32
2022-09-01T01:34:49.637Z,10.47
2022-09-01T01:39:51.922Z,10.62
2022-09-01T01:44:54.312Z,10.72
2022-09-01T01:49:57.480Z,10.84
2022-09-01T01:55:03.260Z,11.04
2022-09-01T02:00:10.815Z,11.06
2022-09-01T02:05:12.780Z,11.07
2022-09-01T02:10:15.061Z,11.07
2022-09-01T02:15:17.145Z,11.07
2022-09-01T02:20:19.739Z,11.08
2022-09-01T02:25:23.049Z,11.10
2022-09-01T02:30:27.533Z,11.16
2022-09-01T02:35:31.514Z,11.23
2022-09-01T02:40:34.769Z,11.31
2022-09-01T02:45:37.234Z,11.42
2022-09-01T02:50:41.445Z,11.52
2022-09-01T02:55:43.629Z,11.57
2022-09-01T03:00:52.216Z,11.61
2022-09-01T03:05:56.909Z,11.63
2022-09-01T03:11:02.883Z,11.67
2022-09-01T03:16:07.152Z,11.70
2022-09-01T03:21:14.721Z,11.73
2022-09-01T03:26:20.536Z,11.73
2022-09-01T03:31:27.011Z,11.69
2022-09-01T03:36:30.433Z,11.63
2022-09-01T03:41:32.574Z,11.60
2022-09-01T03:46:37.120Z,11.59
2022-09-01T03:51:40.116Z,11.60
2022-09-01T03:56:43.528Z,11.61
2022-09-01T04:01:46.547Z,11.63
2022-09-01T04:06:48.923Z,11.65
2022-09-01T04:11:52.743Z,11.67
2022-09-01T04:17:13.260Z,11.69
2022-09-01T04:22:17.288Z,11.76
2022-09-01T04:27:21.211Z,11.82
2022-09-01T04:32:24.009Z,11.87
2022-09-01T04:37:28.140Z,11.91
2022-09-01T04:42:32.004Z,11.97
2022-09-01T04:47:36.198Z,12.04
2022-09-01T04:52:39.918Z,12.15
2022-09-01T04:57:42.099Z,12.27
2022-09-01T05:02:45.717Z,12.38
2022-09-01T05:07:52.507Z,12.46
2022-09-01T05:12:54.489Z,12.49
2022-09-01T05:17:59.491Z,12.50
2022-09-01T05:23:02.031Z,12.49
2022-09-01T05:28:04.158Z,12.50
2022-09-01T05:33:11.215Z,12.59
2022-09-01T05:38:14.010Z,12.74
2022-09-01T05:43:17.013Z,13.04
2022-09-01T05:48:23.410Z,13.51
2022-09-01T05:53:30.803Z,14.43
2022-09-01T06:04:05.381Z,19.31
2022-09-01T06:09:08.894Z,20.75
2022-09-01T06:14:11.692Z,20.45
2022-09-01T06:19:14.399Z,19.77
2022-09-01T06:24:17.699Z,19.04
2022-09-01T06:29:20.813Z,18.33
2022-09-01T06:34:22.792Z,17.69
2022-09-01T06:39:26.211Z,17.19
2022-09-01T06:44:31.859Z,17.05
2022-09-01T06:49:34.730Z,18.30
2022-09-01T06:54:39.213Z,19.66
2022-09-01T06:59:42.296Z,21.85
2022-09-01T07:04:45.617Z,25.39
2022-09-01T07:10:05.663Z,28.69
2022-09-01T07:21:02.600Z,33.47
2022-09-01T07:26:07.885Z,35.24
2022-09-01T07:53:00.280Z,35.10
2022-09-01T07:58:02.257Z,34.99
2022-09-01T08:03:04.406Z,36.01
2022-09-01T08:08:18.622Z,36.99
2022-09-01T08:13:22.345Z,37.85
2022-09-01T08:18:24.585Z,38.15
2022-09-01T08:23:27.005Z,38.10
2022-09-01T08:28:29.366Z,37.01
2022-09-01T08:33:34.753Z,34.06
2022-09-01T08:38:37.292Z,30.47
2022-09-01T08:43:57.319Z,27.33
2022-09-01T08:49:24.753Z,24.73
2022-09-01T08:54:34.280Z,23.19
2022-09-01T08:59:36.808Z,24.86
2022-09-01T09:05:23.179Z,28.43
2022-09-01T09:10:51.897Z,31.62
2022-09-01T09:16:08.179Z,33.73
2022-09-01T09:21:29.983Z,35.18
2022-09-01T09:26:47.829Z,34.17
2022-09-01T09:32:22.618Z,31.79
2022-09-01T09:37:30.581Z,29.68
2022-09-01T09:42:36.362Z,29.53
2022-09-01T09:47:45.266Z,28.97
2022-09-01T09:52:49.168Z,27.69
2022-09-01T09:57:55.384Z,26.59
2022-09-01T10:03:10.203Z,25.36
2022-09-01T10:08:39.489Z,24.44
2022-09-01T10:13:41.469Z,23.83
2022-09-01T10:18:44.880Z,23.48
2022-09-01T10:23:46.862Z,23.30
2022-09-01T10:28:50.813Z,23.16
2022-09-01T10:33:53.585Z,23.10
2022-09-01T10:39:04.412Z,22.98
2022-09-01T10:44:19.313Z,22.55
2022-09-01T10:49:46.913Z,22.40
2022-09-01T10:54:56.388Z,22.47
2022-09-01T11:00:39.364Z,22.69
2022-09-01T11:06:10.964Z,22.98
2022-09-01T11:11:35.516Z,23.06
2022-09-01T11:16:46.721Z,22.69
2022-09-01T11:22:07.835Z,22.06
2022-09-01T11:27:32.035Z,21.45
2022-09-01T11:32:37.291Z,21.12
2022-09-01T11:37:40.800Z,21.21
2022-09-01T11:42:46.754Z,21.44
2022-09-01T11:47:54.130Z,21.50
2022-09-01T11:53:28.423Z,21.10
2022-09-01T11:58:38.797Z,21.17
2022-09-01T12:03:41.061Z,21.42
2022-09-01T12:08:51.254Z,21.29
2022-09-01T12:14:11.890Z,20.80
2022-09-01T12:19:27.344Z,20.24
2022-09-01T12:24:34.484Z,19.90
2022-09-01T12:29:37.676Z,19.88
2022-09-01T12:34:41.397Z,20.06
2022-09-01T12:39:47.595Z,20.42
2022-09-01T12:44:53.957Z,20.75
2022-09-01T12:49:56.660Z,20.97
2022-09-01T12:54:58.738Z,20.91
2022-09-01T13:00:20.791Z,20.83
2022-09-01T13:05:29.934Z,20.83
2022-09-01T13:10:45.022Z,20.80
2022-09-01T13:15:52.688Z,20.71
2022-09-01T13:20:56.361Z,20.75
2022-09-01T13:26:01.918Z,20.76
2022-09-01T13:36:45.339Z,19.91
2022-09-01T13:41:49.460Z,19.80
2022-09-01T13:46:59.338Z,19.56
2022-09-01T13:52:02.151Z,19.46
2022-09-01T13:57:04.481Z,19.37
2022-09-01T14:02:07.697Z,19.36
2022-09-01T14:07:10.083Z,19.38
2022-09-01T14:12:12.162Z,19.29
2022-09-01T14:17:15.679Z,19.10
2022-09-01T14:22:18.384Z,18.99
2022-09-01T14:27:20.566Z,18.83
2022-09-01T14:32:26.633Z,18.67
2022-09-01T14:37:29.645Z,18.50
2022-09-01T14:42:32.145Z,18.22
2022-09-01T14:47:34.109Z,18.01
2022-09-01T14:52:38.697Z,18.00
2022-09-01T14:57:40.855Z,18.09
2022-09-01T15:02:44.453Z,18.17
2022-09-01T15:07:47.054Z,18.20
2022-09-01T15:12:49.541Z,18.17
2022-09-01T15:17:52.442Z,18.16
2022-09-01T15:22:56.468Z,18.18
2022-09-01T15:27:58.655Z,18.18
2022-09-01T15:33:01.147Z,18.16
2022-09-01T15:38:04.783Z,18.11
2022-09-01T15:43:08.093Z,18.01
2022-09-01T15:48:10.062Z,17.89
2022-09-01T15:53:12.899Z,17.74
2022-09-01T15:58:17.396Z,17.55
2022-09-01T16:03:20.574Z,17.32
2022-09-01T16:08:23.093Z,17.14
2022-09-01T16:13:25.585Z,16.99
2022-09-01T16:18:37.213Z,16.87
2022-09-01T16:23:43.993Z,16.75
2022-09-01T16:28:53.541Z,16.64
2022-09-01T16:34:01.573Z,16.51
2022-09-01T16:39:39.685Z,16.39
2022-09-01T16:44:50.579Z,16.25
2022-09-01T16:50:08.918Z,16.09
2022-09-01T16:55:29.254Z,15.91
2022-09-01T17:00:56.429Z,15.73
2022-09-01T17:06:13.642Z,15.52
2022-09-01T17:11:20.369Z,15.28
2022-09-01T17:16:41.884Z,15.05
2022-09-01T17:22:05.194Z,14.82
2022-09-01T17:27:25.181Z,14.59
2022-09-01T17:33:18.430Z,14.34
2022-09-01T17:38:30.372Z,14.09
2022-09-01T17:43:46.073Z,13.86
2022-09-01T17:48:49.074Z,13.62
2022-09-01T17:54:31.595Z,13.39
2022-09-01T18:00:07.373Z,13.16
2022-09-01T18:05:24.513Z,12.95
2022-09-01T18:10:39.029Z,12.75
2022-09-01T18:15:58.425Z,12.57
2022-09-01T18:21:37.614Z,12.41
2022-09-01T18:26:43.598Z,12.23
2022-09-01T18:32:07.897Z,12.04
2022-09-01T18:37:19.218Z,11.85
2022-09-01T18:42:31.599Z,11.69
2022-09-01T18:47:43.944Z,11.56
2022-09-01T18:53:16.095Z,11.44
2022-09-01T18:58:50.701Z,11.32
2022-09-01T19:04:14.378Z,11.22
2022-09-01T19:09:31.101Z,11.17
2022-09-01T19:14:49.598Z,11.12
2022-09-01T19:20:27.239Z,11.06
2022-09-01T19:25:39.260Z,10.98
2022-09-01T19:31:12.521Z,10.91
2022-09-01T19:36:35.057Z,10.82
2022-09-01T19:41:49.648Z,10.79
2022-09-01T19:47:01.904Z,10.78
2022-09-01T19:52:32.186Z,10.75
2022-09-01T19:58:03.905Z,10.73
2022-09-01T20:03:14.270Z,10.72
2022-09-01T20:08:20.793Z,10.75
2022-09-01T20:13:30.108Z,10.81
2022-09-01T20:18:41.441Z,10.87
2022-09-01T20:23:58.167Z,10.90
2022-09-01T20:29:12.173Z,10.93
2022-09-01T20:34:21.123Z,10.92
2022-09-01T20:40:01.928Z,10.89
2022-09-01T20:45:23.190Z,10.84
2022-09-01T20:50:34.846Z,10.78
2022-09-01T20:55:56.477Z,10.72
2022-09-01T21:01:20.295Z,10.65
2022-09-01T21:06:54.201Z,10.58
2022-09-01T21:12:26.597Z,10.49
2022-09-01T21:18:00.111Z,10.38
2022-09-01T21:23:02.101Z,10.26
2022-09-01T21:28:08.701Z,10.16
2022-09-01T21:33:10.514Z,10.05
2022-09-01T21:38:12.532Z,9.96
2022-09-01T21:43:19.184Z,9.87
2022-09-01T21:48:21.100Z,9.80
2022-09-01T21:53:23.180Z,9.74
2022-09-01T21:58:25.162Z,9.66
2022-09-01T22:03:27.038Z,9.58
2022-09-01T22:08:29.964Z,9.51
2022-09-01T22:13:31.817Z,9.44
2022-09-01T22:18:34.407Z,9.35
2022-09-01T22:23:37.925Z,9.29
2022-09-01T22:28:39.697Z,9.19
2022-09-01T22:33:41.984Z,9.11
2022-09-01T22:38:43.760Z,9.03
2022-09-01T22:43:46.148Z,8.96
2022-09-01T22:48:48.949Z,8.90
2022-09-01T22:53:51.133Z,8.85
2022-09-01T22:58:55.875Z,8.78
2022-09-01T23:04:00.212Z,8.72
2022-09-01T23:09:03.424Z,8.68
2022-09-01T23:14:05.708Z,8.66
2022-09-01T23:19:07.991Z,8.64
2022-09-01T23:24:10.379Z,8.63
2022-09-01T23:29:12.167Z,8.61
2022-09-01T23:34:14.033Z,8.58
2022-09-01T23:39:16.011Z,8.53
2022-09-01T23:44:17.888Z,8.51
2022-09-01T23:49:20.071Z,8.47
2022-09-01T23:54:22.358Z,8.46
2022-09-01T23:59:27.336Z,8.47
